Time;durP1;ratioP1;P1;durP2;ratioP2;P2;SDS_P1;SDS_P2;PMS_P1;PMS_P2;Temp;Humidity;BMP_temperature;BMP_pressure;BME280_temperature;BME280_humidity;BME280_pressure;Samples;Min_cycle;Max_cycle;Signal;HPM_P1;HPM_P2
2023/03/25 00:10:18;;;;;;;12.10;3.00;;;;;;;8.62;97.04;100160.50;4932540;29;20050;-84
2023/03/25 00:12:52;;;;;;;11.52;2.83;;;;;;;8.59;96.24;100160.72;4927436;29;20050;-84
2023/03/25 00:15:35;;;;;;;9.57;2.90;;;;;;;8.57;96.84;100170.50;4930491;29;20032;-84
2023/03/25 00:18:22;;;;;;;10.98;2.28;;;;;;;8.55;96.87;100164.53;4899756;29;20485;-83
2023/03/25 00:20:53;;;;;;;9.85;2.22;;;;;;;8.55;95.51;100172.41;4949563;29;20099;-84
2023/03/25 00:23:24;;;;;;;14.10;3.03;;;;;;;8.56;95.16;100166.22;4949121;29;20043;-91
2023/03/25 00:26:02;;;;;;;9.50;2.35;;;;;;;8.56;95.70;100150.47;4935118;29;20027;-90
2023/03/25 00:28:45;;;;;;;10.27;2.45;;;;;;;8.54;95.40;100156.78;4927818;29;20436;-90
2023/03/25 00:31:19;;;;;;;;;;;;;;;8.60;95.72;100161.56;4950698;29;20034;-90
2023/03/25 00:33:53;;;;;;;11.88;2.35;;;;;;;8.53;95.32;100150.72;4919558;29;19994;-90
2023/03/25 00:36:41;;;;;;;;;;;;;;;;;;;;;
2023/03/25 00:39:25;;;;;;;8.90;2.50;;;;;;;8.48;94.64;100153.69;4936161;29;20373;-90
2023/03/25 00:42:02;;;;;;;10.30;2.40;;;;;;;8.50;94.49;100153.56;4953053;29;20031;-91
2023/03/25 00:49:11;;;;;;;8.38;2.45;;;;;;;8.50;95.17;100150.94;4844807;29;20037;-91
2023/03/25 00:51:58;;;;;;;11.32;2.55;;;;;;;8.48;94.64;100148.44;4779062;29;20039;-90
2023/03/25 00:55:21;;;;;;;6.95;2.20;;;;;;;8.46;94.65;100149.53;4854260;29;20051;-90
2023/03/25 00:57:50;;;;;;;8.80;2.38;;;;;;;8.45;94.93;100158.34;4948355;29;20516;-90
2023/03/25 01:00:40;;;;;;;8.38;2.10;;;;;;;8.43;94.61;100145.34;4936249;29;20035;-90
2023/03/25 01:03:42;;;;;;;7.88;2.38;;;;;;;8.46;94.88;100150.34;4924618;29;20032;-90
2023/03/25 01:06:20;;;;;;;9.13;2.35;;;;;;;8.45;94.77;100142.63;4911942;29;20130;-89
2023/03/25 01:09:05;;;;;;;12.48;1.98;;;;;;;8.39;95.18;100140.44;4944926;29;20399;-90
2023/03/25 01:11:40;;;;;;;6.68;2.20;;;;;;;8.34;94.90;100135.53;4932669;29;20057;-90
2023/03/25 01:14:35;;;;;;;7.40;2.30;;;;;;;8.39;95.34;100143.06;4934573;29;20345;-90
2023/03/25 01:17:37;;;;;;;9.68;2.10;;;;;;;8.38;95.45;100141.38;4937984;29;20392;-90
2023/03/25 01:20:25;;;;;;;8.88;2.50;;;;;;;8.37;95.65;100145.78;4874127;29;20052;-90
2023/03/25 01:23:15;;;;;;;8.05;2.65;;;;;;;8.34;95.42;100139.94;4863401;29;20036;-89
2023/03/25 01:26:36;;;;;;;;;;;;;;;;;;;;;
2023/03/25 01:29:08;;;;;;;7.30;2.00;;;;;;;8.25;95.82;100145.84;4904140;29;20059;-90
2023/03/25 01:32:45;;;;;;;7.93;2.00;;;;;;;8.25;96.18;100146.69;4953345;29;20082;-90
2023/03/25 01:35:30;;;;;;;6.90;2.25;;;;;;;8.23;96.40;100142.53;4938734;29;20044;-90
2023/03/25 01:38:04;;;;;;;7.15;2.38;;;;;;;8.20;96.23;100140.13;4924015;29;20043;-90
2023/03/25 01:40:38;;;;;;;7.32;2.65;;;;;;;8.18;96.44;100138.47;4915677;29;20086;-91
2023/03/25 01:43:20;;;;;;;6.55;2.00;;;;;;;8.18;97.40;100148.94;4910174;29;20031;-90
2023/03/25 01:45:56;;;;;;;6.50;2.25;;;;;;;8.15;97.23;100146.56;4924474;29;20047;-90
2023/03/25 01:48:39;;;;;;;7.03;2.22;;;;;;;8.16;97.40;100142.16;4953329;29;20042;-90
2023/03/25 01:51:19;;;;;;;;;;;;;;;8.21;97.03;100133.94;4923072;29;20031;-90
2023/03/25 01:53:52;;;;;;;6.38;2.20;;;;;;;8.10;97.68;100135.59;4950948;29;20275;-90
2023/03/25 01:56:38;;;;;;;6.13;2.10;;;;;;;8.10;97.81;100137.38;4929754;29;20031;-91
2023/03/25 01:59:23;;;;;;;5.38;2.22;;;;;;;8.10;97.21;100140.84;4931901;29;20118;-91
2023/03/25 02:02:01;;;;;;;7.50;2.13;;;;;;;8.06;97.68;100135.94;4947903;29;20031;-90
2023/03/25 02:04:39;;;;;;;6.82;2.10;;;;;;;8.07;97.28;100132.38;4951902;29;20027;-90
2023/03/25 02:07:19;;;;;;;8.65;1.70;;;;;;;8.09;97.24;100147.03;4947094;29;20043;-90
2023/03/25 02:09:55;;;;;;;6.30;1.63;;;;;;;8.09;97.36;100136.53;4928434;29;20526;-90
2023/03/25 02:12:21;;;;;;;4.32;1.67;;;;;;;8.08;98.77;100129.63;4944631;29;20027;-89
2023/03/25 02:15:07;;;;;;;4.90;1.70;;;;;;;8.03;99.22;100129.16;4905595;29;20032;-89
2023/03/25 02:18:14;;;;;;;7.45;1.98;;;;;;;8.06;99.60;100125.47;4929611;29;20471;-90
2023/03/25 02:21:08;;;;;;;10.00;2.38;;;;;;;8.02;100.00;100129.25;4916972;29;20500;-90
2023/03/25 02:23:33;;;;;;;;;;;;;;;8.06;99.47;100128.09;4940748;29;20193;-89
2023/03/25 02:26:27;;;;;;;6.97;2.13;;;;;;;8.01;99.05;100125.81;4945082;29;19933;-89
2023/03/25 02:33:11;;;;;;;10.45;2.10;;;;;;;8.06;99.15;100134.16;4855827;29;20090;-90
2023/03/25 02:36:29;;;;;;;9.10;2.20;;;;;;;8.07;98.87;100133.22;4928411;29;20039;-90
2023/03/25 02:39:10;;;;;;;5.68;1.80;;;;;;;8.08;98.59;100140.13;4914165;29;20039;-89
2023/03/25 02:42:00;;;;;;;6.75;2.13;;;;;;;8.05;99.03;100135.09;4928887;29;20060;-90
2023/03/25 02:44:44;;;;;;;9.85;2.33;;;;;;;8.03;99.38;100137.00;4929581;29;20034;-90
2023/03/25 02:47:24;;;;;;;10.48;2.15;;;;;;;7.97;100.00;100129.59;4936158;29;20028;-90
2023/03/25 02:50:12;;;;;;;8.55;2.33;;;;;;;7.99;100.00;100135.53;4928149;29;20063;-89
2023/03/25 02:53:00;;;;;;;7.55;2.42;;;;;;;7.95;100.00;100117.53;4932233;29;20107;-88
2023/03/25 02:55:43;;;;;;;8.05;2.28;;;;;;;7.85;100.00;100120.03;4933028;29;20050;-89
2023/03/25 02:58:29;;;;;;;8.30;2.47;;;;;;;7.79;100.00;100118.69;4940030;28;20043;-88
2023/03/25 03:01:03;;;;;;;11.90;2.75;;;;;;;7.77;100.00;100110.13;4930439;29;20054;-88
2023/03/25 03:03:40;;;;;;;9.50;2.50;;;;;;;7.75;100.00;100113.81;4943593;29;20024;-89
2023/03/25 03:06:17;;;;;;;15.25;3.53;;;;;;;7.77;100.00;100119.75;4913158;29;20091;-89
2023/03/25 03:09:17;;;;;;;10.40;2.90;;;;;;;7.77;100.00;100120.59;4931328;29;20031;-89
2023/03/25 03:11:50;;;;;;;8.80;2.80;;;;;;;7.74;100.00;100109.53;4914987;29;20048;-89
2023/03/25 03:15:08;;;;;;;9.95;2.83;;;;;;;7.77;100.00;100109.28;4936386;29;20035;-88
2023/03/25 03:18:36;;;;;;;11.23;2.72;;;;;;;7.75;100.00;100108.56;4913113;29;20122;-89
2023/03/25 03:21:46;;;;;;;12.18;3.00;;;;;;;7.71;100.00;100104.50;4870582;29;21018;-89
2023/03/25 03:24:49;;;;;;;;;;;;;;;;;;;;;
2023/03/25 03:28:11;;;;;;;12.93;2.58;;;;;;;7.72;100.00;100114.03;4937423;29;20023;-89
2023/03/25 03:31:26;;;;;;;10.52;2.70;;;;;;;7.71;100.00;100121.06;4886654;29;20441;-90
2023/03/25 03:37:53;;;;;;;9.18;2.70;;;;;;;7.77;100.00;100109.28;4883799;29;20041;-90
2023/03/25 03:40:29;;;;;;;11.27;2.72;;;;;;;7.74;100.00;100120.81;4923608;29;20046;-91
2023/03/25 03:43:31;;;;;;;10.05;2.97;;;;;;;7.77;100.00;100104.06;4929521;29;20055;-91
2023/03/25 03:46:37;;;;;;;12.98;2.97;;;;;;;7.80;100.00;100101.19;4896100;29;20036;-91
2023/03/25 03:49:28;;;;;;;16.45;3.67;;;;;;;7.77;100.00;100109.28;4916143;29;20465;-90
2023/03/25 03:52:19;;;;;;;13.75;3.17;;;;;;;7.73;100.00;100103.44;4893807;29;20036;-89
2023/03/25 03:55:30;;;;;;;;;;;;;;;;;;;;;
2023/03/25 04:08:24;;;;;;;15.10;2.97;;;;;;;7.66;100.00;100110.09;4923043;29;20039;-89
2023/03/25 04:12:01;;;;;;;11.07;2.78;;;;;;;7.66;100.00;100112.72;4932423;29;20547;-90
2023/03/25 04:14:39;;;;;;;12.23;2.75;;;;;;;7.64;100.00;100108.53;4868703;29;20051;-90
2023/03/25 04:17:25;;;;;;;14.53;3.03;;;;;;;7.66;100.00;100111.88;4939457;29;20066;-89
2023/03/25 04:19:55;;;;;;;11.75;2.90;;;;;;;7.61;100.00;100111.38;4937732;29;20039;-89
2023/03/25 04:22:51;;;;;;;9.35;2.58;;;;;;;7.58;100.00;100114.19;4924629;29;20253;-89
2023/03/25 04:25:33;;;;;;;9.25;2.97;;;;;;;7.60;100.00;100107.06;4950313;29;20047;-90
2023/03/25 04:28:22;;;;;;;5.80;2.10;;;;;;;7.60;100.00;100107.06;4953464;29;20031;-89
2023/03/25 04:31:17;;;;;;;13.88;2.88;;;;;;;7.62;100.00;100115.66;4928497;29;20054;-89
2023/03/25 04:37:21;;;;;;;8.70;2.28;;;;;;;7.61;100.00;100109.59;4859056;29;20048;-90
2023/03/25 04:40:02;;;;;;;9.38;2.25;;;;;;;7.61;100.00;100122.69;4955249;29;20035;-89
2023/03/25 04:42:37;;;;;;;9.73;2.30;;;;;;;7.63;100.00;100125.19;4951766;29;20026;-89
2023/03/25 04:45:19;;;;;;;8.63;2.28;;;;;;;7.62;100.00;100120.91;4933312;29;20059;-89
2023/03/25 04:48:24;;;;;;;10.45;2.42;;;;;;;7.61;100.00;100130.53;4905800;29;20079;-89
2023/03/25 04:51:03;;;;;;;9.40;2.22;;;;;;;7.61;100.00;100125.31;4931272;29;20065;-90
2023/03/25 04:54:02;;;;;;;9.60;2.35;;;;;;;7.60;100.00;100122.78;4948090;29;20399;-90
2023/03/25 04:57:02;;;;;;;8.15;2.50;;;;;;;7.57;100.00;100120.38;4944399;29;20126;-89
2023/03/25 04:59:36;;;;;;;8.93;2.53;;;;;;;7.52;100.00;100107.63;4936550;29;20039;-90
2023/03/25 05:02:11;;;;;;;9.88;2.50;;;;;;;7.52;100.00;100118.94;4952640;29;20118;-90
2023/03/25 05:04:50;;;;;;;9.43;2.17;;;;;;;7.53;100.00;100114.53;4937476;29;20043;-90
2023/03/25 05:07:21;;;;;;;9.27;2.63;;;;;;;7.51;100.00;100112.03;4930722;29;20098;-89
2023/03/25 05:10:11;;;;;;;8.50;2.60;;;;;;;7.52;100.00;100102.41;4932723;29;20082;-90
2023/03/25 05:12:39;;;;;;;9.88;2.30;;;;;;;7.45;100.00;100103.78;4939965;29;20480;-88
2023/03/25 05:15:15;;;;;;;8.63;2.55;;;;;;;7.42;100.00;100107.47;4934822;29;20142;-88
2023/03/25 05:17:54;;;;;;;8.65;2.28;;;;;;;7.44;100.00;100113.44;4931780;29;20130;-89
2023/03/25 05:20:49;;;;;;;11.63;2.60;;;;;;;7.45;100.00;100109.88;4933207;28;20111;-89
2023/03/25 05:23:26;;;;;;;9.35;2.25;;;;;;;7.45;100.00;100112.47;4913942;29;20028;-89
2023/03/25 05:26:11;;;;;;;11.27;2.85;;;;;;;7.45;100.00;100115.09;4912324;29;20580;-89
2023/03/25 05:32:22;;;;;;;9.52;2.45;;;;;;;7.53;100.00;100138.94;4928148;29;20119;-89
2023/03/25 05:35:20;;;;;;;10.38;2.67;;;;;;;7.57;100.00;100133.47;4856212;29;20053;-89
2023/03/25 05:37:55;;;;;;;9.98;2.20;;;;;;;7.58;100.00;100137.75;4937494;29;20051;-88
2023/03/25 05:46:36;;;;;;;10.88;2.83;;;;;;;7.59;100.00;100127.16;4893033;29;20479;-89
2023/03/25 05:49:25;;;;;;;10.45;2.30;;;;;;;7.61;100.00;100132.31;4905625;29;20040;-89
2023/03/25 05:52:02;;;;;;;11.02;2.80;;;;;;;7.63;100.00;100133.03;4887938;29;20134;-89
2023/03/25 05:54:47;;;;;;;;;;;;;;;;;;;;;
2023/03/25 05:57:55;;;;;;;12.98;2.95;;;;;;;7.66;100.00;100143.28;4892883;29;20040;-88
2023/03/25 06:00:21;;;;;;;9.25;2.15;;;;;;;7.67;100.00;100151.03;4908376;29;20036;-88
2023/03/25 06:02:57;;;;;;;13.60;2.72;;;;;;;7.65;100.00;100146.84;4893285;29;20033;-88
2023/03/25 06:09:04;;;;;;;;;;;;;;;;;;;;;
2023/03/25 06:11:43;;;;;;;10.68;2.70;;;;;;;7.62;100.00;100163.63;4912733;29;20055;-88
2023/03/25 06:14:30;;;;;;;14.57;3.15;;;;;;;7.64;100.00;100161.72;4925343;29;20509;-88
2023/03/25 06:20:33;;;;;;;11.25;2.50;;;;;;;7.66;99.92;100166.84;4933840;29;20032;-89
2023/03/25 06:23:22;;;;;;;11.20;2.95;;;;;;;7.65;100.00;100168.63;4933496;29;20127;-89
2023/03/25 06:26:00;;;;;;;12.48;2.67;;;;;;;7.69;99.90;100158.78;4934231;29;20031;-89
2023/03/25 06:31:32;;;;;;;10.57;2.90;;;;;;;7.70;98.20;100160.44;4912008;29;20036;-89
2023/03/25 06:34:56;;;;;;;13.32;3.00;;;;;;;7.73;98.67;100161.06;4912098;29;20096;-89
2023/03/25 06:37:33;;;;;;;13.15;3.58;;;;;;;7.75;98.10;100159.16;4936518;29;20046;-85
2023/03/25 06:39:59;;;;;;;11.18;3.00;;;;;;;7.76;97.92;100160.81;4933386;29;20161;-85
2023/03/25 06:42:27;;;;;;;14.70;3.28;;;;;;;7.78;97.08;100165.94;4932665;29;20059;-86
2023/03/25 06:45:06;;;;;;;11.38;2.80;;;;;;;7.86;97.12;100166.22;4933156;29;20538;-85
2023/03/25 06:47:56;;;;;;;13.20;3.03;;;;;;;7.98;97.54;100178.41;4932969;29;20066;-85
2023/03/25 06:50:37;;;;;;;13.80;3.30;;;;;;;8.03;97.37;100178.91;4932526;29;20031;-85
2023/03/25 06:53:33;;;;;;;16.27;3.38;;;;;;;8.12;97.17;100187.88;4916188;29;20083;-89
2023/03/25 06:56:07;;;;;;;12.35;2.92;;;;;;;8.14;96.33;100184.19;4932828;29;20481;-89
2023/03/25 06:58:40;;;;;;;15.98;3.30;;;;;;;8.15;96.78;100187.66;4915779;29;20035;-89
2023/03/25 07:01:13;;;;;;;;;;;;;;;8.22;97.19;100188.03;4931070;29;20043;-89
2023/03/25 07:03:45;;;;;;;12.98;3.35;;;;;;;8.24;96.12;100186.13;4932114;29;19965;-89
2023/03/25 07:06:21;;;;;;;15.23;3.35;;;;;;;8.27;96.03;100183.28;4912219;29;20024;-89
2023/03/25 07:08:54;;;;;;;13.48;3.28;;;;;;;8.24;97.00;100176.47;4958275;28;20043;-89
2023/03/25 07:11:28;;;;;;;15.53;3.63;;;;;;;8.26;96.12;100185.06;4950042;29;20047;-89
2023/03/25 07:14:21;;;;;;;14.30;3.75;;;;;;;8.26;97.01;100184.22;4948455;29;20287;-89
2023/03/25 07:16:55;;;;;;;;;;;;;;;8.39;97.25;100185.81;4936467;29;20071;-89
2023/03/25 07:19:30;;;;;;;14.38;3.28;;;;;;;8.41;96.51;100180.50;4923740;29;20042;-91
2023/03/25 07:22:06;;;;;;;18.60;3.60;;;;;;;8.39;97.55;100174.50;4913234;29;20043;-89
2023/03/25 07:24:45;;;;;;;;;;;;;;;;;;;;;
2023/03/25 07:27:15;;;;;;;16.75;3.20;;;;;;;8.36;98.92;100180.81;4924712;29;20053;-88
2023/03/25 07:29:48;;;;;;;14.93;3.53;;;;;;;8.33;98.49;100174.94;4932485;29;20131;-88
2023/03/25 07:32:20;;;;;;;16.58;3.63;;;;;;;8.29;98.79;100184.00;4914686;29;20035;-89
2023/03/25 07:34:46;;;;;;;17.63;4.15;;;;;;;8.26;99.34;100184.22;4947930;29;20043;-89
2023/03/25 07:37:13;;;;;;;15.57;3.97;;;;;;;8.24;99.80;100191.34;4931727;29;20481;-89
2023/03/25 07:39:47;;;;;;;17.95;4.10;;;;;;;8.23;100.00;100197.56;4921180;29;20036;-89
2023/03/25 07:42:26;;;;;;;17.08;3.60;;;;;;;8.15;100.00;100192.88;4894640;29;20520;-88
2023/03/25 07:45:07;;;;;;;16.17;3.85;;;;;;;8.13;100.00;100189.56;4912111;29;20036;-88
2023/03/25 07:47:51;;;;;;;;;;;;;;;;;;;;;
2023/03/25 07:50:32;;;;;;;14.95;3.58;;;;;;;8.07;100.00;100203.94;4907469;29;20039;-88
2023/03/25 07:53:13;;;;;;;14.18;3.53;;;;;;;8.11;100.00;100202.75;4912711;29;20485;-87
2023/03/25 07:55:49;;;;;;;16.55;4.00;;;;;;;8.10;100.00;100206.34;4917745;29;20023;-88
2023/03/25 07:58:27;;;;;;;19.33;3.88;;;;;;;8.13;100.00;100206.09;4912973;29;20059;-88
2023/03/25 08:01:05;;;;;;;19.63;4.40;;;;;;;8.24;100.00;100209.69;4911210;29;20070;-88
2023/03/25 08:03:39;;;;;;;16.30;3.25;;;;;;;8.37;100.00;100218.34;4872658;29;20564;-89
2023/03/25 08:06:08;;;;;;;20.38;4.22;;;;;;;8.57;100.00;100209.00;4873452;29;20044;-88
2023/03/25 08:08:37;;;;;;;15.07;3.60;;;;;;;8.86;99.84;100218.09;4868959;29;20075;-89
2023/03/25 08:11:11;;;;;;;16.33;3.67;;;;;;;9.11;97.38;100219.66;4872944;29;20144;-88
2023/03/25 08:14:01;;;;;;;18.58;4.10;;;;;;;9.30;96.92;100225.16;4881861;29;20124;-89
2023/03/25 08:16:39;;;;;;;15.68;3.70;;;;;;;9.33;95.89;100227.53;4884897;29;20045;-90
2023/03/25 08:19:34;;;;;;;16.20;3.50;;;;;;;9.37;95.65;100226.34;4892315;29;20036;-90
2023/03/25 08:22:00;;;;;;;13.77;3.28;;;;;;;9.27;96.58;100225.41;4888123;29;20087;-88
2023/03/25 08:24:32;;;;;;;17.10;3.80;;;;;;;9.17;99.17;100234.91;4891434;29;20041;-88
2023/03/25 08:27:25;;;;;;;15.63;3.90;;;;;;;9.06;98.97;100238.38;4892312;29;20036;-89
2023/03/25 08:30:00;;;;;;;17.20;3.90;;;;;;;8.91;99.90;100244.81;4891201;29;20056;-89
2023/03/25 08:32:53;;;;;;;19.75;4.40;;;;;;;8.81;100.00;100246.50;4871581;29;20070;-87
2023/03/25 08:35:24;;;;;;;17.05;4.10;;;;;;;8.70;100.00;100247.28;4896201;29;20571;-88
2023/03/25 08:38:20;;;;;;;18.60;3.80;;;;;;;8.75;100.00;100250.38;4914418;29;20028;-88
2023/03/25 08:41:16;;;;;;;;;;;;;;;;;;;;;
2023/03/25 08:43:46;;;;;;;20.77;4.13;;;;;;;8.55;100.00;100247.59;4907451;29;20028;-90
2023/03/25 08:46:21;;;;;;;21.15;4.72;;;;;;;8.59;100.00;100252.50;4913794;29;20567;-89
2023/03/25 08:48:50;;;;;;;18.15;4.53;;;;;;;8.67;100.00;100251.91;4918040;29;20400;-89
2023/03/25 08:51:19;;;;;;;20.58;4.43;;;;;;;8.74;100.00;100253.97;4872952;29;20033;-89
2023/03/25 08:53:47;;;;;;;16.45;4.55;;;;;;;8.87;100.00;100243.38;4889786;29;20049;-90
2023/03/25 08:56:15;;;;;;;20.55;4.10;;;;;;;9.10;100.00;100244.22;4873168;29;20048;-90
2023/03/25 08:58:51;;;;;;;17.60;4.60;;;;;;;9.14;100.00;100245.66;4877398;29;20082;-90
2023/03/25 09:01:36;;;;;;;18.75;4.38;;;;;;;9.13;100.00;100249.25;4891156;29;20043;-90
2023/03/25 09:04:48;;;;;;;16.35;3.55;;;;;;;9.17;100.00;100255.91;4880656;29;20048;-89
2023/03/25 09:07:22;;;;;;;18.17;4.68;;;;;;;9.34;100.00;100252.81;4863246;29;20037;-90
2023/03/25 09:09:54;;;;;;;20.05;4.57;;;;;;;9.63;100.00;100249.72;4894699;29;20410;-91
2023/03/25 09:12:23;;;;;;;18.95;4.55;;;;;;;9.91;100.00;100254.41;4894903;29;20119;-92
2023/03/25 09:15:26;;;;;;;17.98;4.22;;;;;;;10.22;99.32;100241.44;4879976;29;20226;-92
2023/03/25 09:17:59;;;;;;;19.83;4.70;;;;;;;10.25;97.69;100249.06;4895574;29;20044;-92
2023/03/25 09:20:25;;;;;;;22.30;5.10;;;;;;;10.32;95.41;100244.97;4896046;29;20906;-91
2023/03/25 09:23:14;;;;;;;22.60;5.05;;;;;;;10.58;98.01;100235.75;4879662;29;20045;-91
2023/03/25 09:25:46;;;;;;;19.50;4.88;;;;;;;10.92;96.55;100243.44;4891170;29;20044;-89
2023/03/25 09:28:35;;;;;;;19.42;4.20;;;;;;;11.17;94.19;100247.41;4885371;29;20048;-91
2023/03/25 09:31:31;;;;;;;25.70;4.95;;;;;;;11.36;92.21;100251.97;4915824;29;20426;-87
2023/03/25 09:34:23;;;;;;;20.73;4.70;;;;;;;11.34;92.16;100249.47;4889975;29;20114;-91
2023/03/25 09:37:24;;;;;;;;;;;;;;;;;;;;;
2023/03/25 09:40:09;;;;;;;19.50;4.55;;;;;;;11.60;89.46;100252.44;4894304;29;20041;-91
2023/03/25 09:42:57;;;;;;;18.40;4.22;;;;;;;11.65;88.25;100266.06;4894706;29;20083;-90
2023/03/25 09:56:22;;;;;;;18.23;4.65;;;;;;;12.92;81.59;100260.69;4921462;29;20135;-91
2023/03/25 09:59:52;;;;;;;;;;;;;;;;;;;;;
2023/03/25 10:03:23;;;;;;;17.55;4.15;;;;;;;14.34;76.62;100266.38;4896057;29;20541;-91
2023/03/25 10:06:28;;;;;;;16.00;4.45;;;;;;;13.91;76.77;100264.44;4890524;29;20047;-91
2023/03/25 10:16:09;;;;;;;22.63;4.95;;;;;;;14.83;71.80;100256.22;4897212;29;20044;-89
2023/03/25 10:19:27;;;;;;;;;;;;;;;;;;;;;
2023/03/25 10:21:55;;;;;;;15.18;4.20;;;;;;;15.74;65.27;100250.38;4911831;29;20532;-88
2023/03/25 10:25:12;;;;;;;22.67;5.05;;;;;;;15.35;67.68;100257.00;4912230;29;20032;-89
2023/03/25 10:28:20;;;;;;;21.92;4.63;;;;;;;14.41;69.98;100251.56;4909946;29;20044;-88
2023/03/25 10:31:30;;;;;;;19.30;5.13;;;;;;;13.44;73.11;100258.47;4906481;29;20032;-89
2023/03/25 10:40:59;;;;;;;19.42;4.82;;;;;;;12.23;76.00;100253.00;4832501;29;20099;-87
2023/03/25 10:47:17;;;;;;;;;;;;;;;;;;;;;
2023/03/25 10:50:21;;;;;;;18.73;4.68;;;;;;;13.04;71.08;100262.19;4898959;29;20423;-88
2023/03/25 10:52:56;;;;;;;15.23;3.92;;;;;;;12.90;69.72;100257.38;4933636;29;20037;-88
2023/03/25 10:55:46;;;;;;;19.60;4.10;;;;;;;13.03;71.92;100271.09;4932340;29;20036;-88
2023/03/25 11:01:25;;;;;;;19.55;4.18;;;;;;;13.32;68.82;100262.28;4933004;29;20044;-87
2023/03/25 11:03:54;;;;;;;14.40;3.70;;;;;;;13.34;66.34;100266.44;4923603;29;20052;-88
2023/03/25 11:09:44;;;;;;;14.80;3.38;;;;;;;13.09;65.29;100275.78;4932445;29;20480;-88
2023/03/25 11:12:09;;;;;;;13.52;3.30;;;;;;;12.89;63.93;100278.63;4933177;29;20663;-87
2023/03/25 11:14:39;;;;;;;12.65;2.92;;;;;;;12.77;64.65;100278.78;4932953;29;20111;-87
2023/03/25 11:17:30;;;;;;;12.35;2.92;;;;;;;12.82;64.59;100291.59;4915720;29;20107;-87
2023/03/25 11:20:05;;;;;;;8.30;2.28;;;;;;;12.80;62.45;100277.66;4918948;29;20107;-86
2023/03/25 11:22:46;;;;;;;11.52;2.88;;;;;;;12.70;62.89;100292.69;4928103;29;20060;-87
2023/03/25 11:29:00;;;;;;;13.55;2.72;;;;;;;12.77;65.37;100293.78;4918886;29;20080;-87
2023/03/25 11:32:16;;;;;;;11.68;2.88;;;;;;;12.75;65.56;100279.91;4932415;29;20031;-88
2023/03/25 11:34:54;;;;;;;12.13;2.90;;;;;;;12.75;64.97;100287.81;4898125;29;20071;-87
2023/03/25 11:37:45;;;;;;;13.38;3.35;;;;;;;12.79;64.16;100283.91;4941637;29;20154;-86
2023/03/25 11:40:16;;;;;;;13.05;3.08;;;;;;;12.67;63.91;100282.41;4932780;29;20341;-87
2023/03/25 11:43:20;;;;;;;16.15;3.42;;;;;;;12.63;65.51;100275.75;4932988;29;20027;-87
2023/03/25 11:45:57;;;;;;;14.88;2.88;;;;;;;12.49;65.19;100272.56;4917328;29;20039;-87
2023/03/25 11:48:35;;;;;;;15.23;3.60;;;;;;;12.44;65.06;100288.00;4913931;29;20059;-87
2023/03/25 11:51:20;;;;;;;10.93;3.13;;;;;;;12.38;64.70;100283.25;4929320;29;20067;-87
2023/03/25 11:53:54;;;;;;;14.15;3.30;;;;;;;12.28;65.95;100274.50;4910629;29;20047;-87
2023/03/25 11:56:43;;;;;;;14.27;3.17;;;;;;;12.22;66.68;100278.53;4910863;29;20047;-87
2023/03/25 11:59:37;;;;;;;14.18;3.72;;;;;;;12.24;70.12;100281.03;4926121;29;20044;-87
2023/03/25 12:02:26;;;;;;;16.08;3.90;;;;;;;12.10;73.56;100281.44;4911095;29;20474;-89
2023/03/25 12:05:38;;;;;;;19.23;4.40;;;;;;;12.13;76.78;100294.34;4895366;29;20059;-89
2023/03/25 12:08:39;;;;;;;15.05;3.38;;;;;;;12.35;77.61;100272.97;4876045;29;20456;-88
2023/03/25 12:11:43;;;;;;;15.88;3.80;;;;;;;12.35;74.85;100277.41;4926157;29;20107;-88
2023/03/25 12:15:06;;;;;;;16.40;3.53;;;;;;;12.10;75.35;100289.34;4910377;29;20088;-89
2023/03/25 12:17:50;;;;;;;15.88;3.38;;;;;;;11.72;81.90;100316.44;4873129;29;20128;-89
2023/03/25 12:20:52;;;;;;;11.40;2.67;;;;;;;11.76;83.20;100308.13;4856755;29;20036;-87
2023/03/25 12:23:39;;;;;;;11.43;3.07;;;;;;;11.92;86.33;100313.72;4906895;29;20126;-86
2023/03/25 12:26:47;;;;;;;9.48;2.97;;;;;;;12.13;84.28;100295.19;4917776;29;20067;-88
2023/03/25 12:29:57;;;;;;;10.25;2.67;;;;;;;12.15;84.10;100282.69;4883765;29;20138;-89
2023/03/25 12:32:46;;;;;;;12.45;3.20;;;;;;;11.91;82.08;100295.41;4877305;29;20556;-88
2023/03/25 12:35:20;;;;;;;8.68;2.20;;;;;;;11.91;82.20;100290.97;4886609;29;20546;-88
2023/03/25 12:38:25;;;;;;;8.77;2.47;;;;;;;11.98;85.34;100290.44;4931007;29;20035;-88
2023/03/25 12:41:22;;;;;;;12.85;2.53;;;;;;;12.19;82.70;100289.34;4940055;28;20036;-87
2023/03/25 12:44:17;;;;;;;7.72;2.20;;;;;;;12.02;80.58;100281.31;4919399;29;20028;-86
2023/03/25 12:47:01;;;;;;;13.40;3.20;;;;;;;11.75;80.66;100300.34;4935650;29;20016;-86
2023/03/25 12:50:04;;;;;;;14.27;2.83;;;;;;;11.62;83.76;100295.31;4923693;29;20024;-87
2023/03/25 12:52:49;;;;;;;11.75;2.60;;;;;;;11.40;87.49;100300.75;4940566;29;20550;-86
2023/03/25 12:55:50;;;;;;;14.85;3.70;;;;;;;11.22;86.35;100309.28;4921019;29;20147;-85
2023/03/25 12:58:46;;;;;;;19.58;3.83;;;;;;;11.01;88.78;100310.25;4934899;29;20400;-86
2023/03/25 13:01:52;;;;;;;12.68;2.97;;;;;;;11.11;92.92;100309.34;4931184;29;20098;-85
2023/03/25 13:04:41;;;;;;;11.63;3.38;;;;;;;11.42;91.76;100310.19;4933980;29;20020;-86
2023/03/25 13:07:42;;;;;;;16.95;3.30;;;;;;;11.71;89.18;100310.31;4903375;29;20537;-86
2023/03/25 13:10:26;;;;;;;12.38;2.97;;;;;;;12.03;89.47;100293.50;4855209;29;20065;-87
2023/03/25 13:13:20;;;;;;;16.50;3.17;;;;;;;12.33;87.92;100303.94;4921125;29;20544;-87
2023/03/25 13:16:15;;;;;;;13.38;3.45;;;;;;;12.62;84.66;100297.84;4913334;29;20046;-88
2023/03/25 13:18:49;;;;;;;16.08;3.60;;;;;;;12.52;83.04;100303.97;4903832;29;20054;-88
2023/03/25 13:21:29;;;;;;;15.13;3.45;;;;;;;12.35;81.60;100291.44;4946628;29;20039;-87
2023/03/25 13:27:42;;;;;;;20.13;3.42;;;;;;;11.92;83.79;100289.16;4875105;29;20037;-88
2023/03/25 13:31:03;;;;;;;16.00;3.72;;;;;;;11.82;84.87;100290.97;4846613;29;20041;-88
2023/03/25 13:33:44;;;;;;;16.20;3.60;;;;;;;11.58;84.63;100294.72;4800527;29;20043;-88
2023/03/25 13:36:36;;;;;;;16.70;3.88;;;;;;;11.53;86.39;100307.47;4801644;29;20047;-88
2023/03/25 13:39:26;;;;;;;17.60;4.13;;;;;;;11.51;86.73;100305.94;4836175;29;20117;-88
2023/03/25 13:42:56;;;;;;;14.32;4.05;;;;;;;11.43;88.15;100318.94;4891425;29;20427;-88
2023/03/25 13:45:47;;;;;;;16.02;3.55;;;;;;;11.68;88.99;100321.13;4875050;29;20045;-88
2023/03/25 13:48:42;;;;;;;12.45;3.33;;;;;;;12.12;86.20;100322.53;4877778;29;20515;-87
2023/03/25 13:51:23;;;;;;;12.43;2.63;;;;;;;12.30;80.94;100311.28;4914093;29;20107;-87
2023/03/25 13:54:15;;;;;;;12.52;3.00;;;;;;;12.27;80.08;100312.41;4915051;29;20471;-88
2023/03/25 13:57:26;;;;;;;17.10;3.30;;;;;;;12.19;78.84;100315.72;4896862;29;20517;-89
2023/03/25 14:00:29;;;;;;;17.52;4.07;;;;;;;12.12;79.32;100333.06;4929386;29;20059;-87
2023/03/25 14:03:11;;;;;;;15.38;3.13;;;;;;;12.13;79.08;100310.19;4928495;29;20130;-88
2023/03/25 14:06:22;;;;;;;13.80;3.30;;;;;;;12.07;78.90;100318.63;4932631;29;20088;-89
2023/03/25 14:09:55;;;;;;;13.35;3.47;;;;;;;12.20;79.23;100321.84;4934202;29;20030;-88
2023/03/25 14:12:50;;;;;;;16.25;3.17;;;;;;;12.30;72.53;100312.13;4868896;29;20076;-88
2023/03/25 14:15:51;;;;;;;;;;;;;;;;;;;;;
2023/03/25 14:18:57;;;;;;;12.38;2.92;;;;;;;12.59;69.57;100306.88;4860011;29;20047;-88
2023/03/25 14:21:26;;;;;;;13.90;2.65;;;;;;;12.84;68.23;100305.47;4904932;29;20048;-90
2023/03/25 14:24:26;;;;;;;9.57;2.55;;;;;;;13.02;67.28;100310.84;4909130;29;20512;-88
2023/03/25 14:27:39;;;;;;;10.27;2.85;;;;;;;13.20;68.39;100310.97;4931441;29;20052;-89
2023/03/25 14:30:48;;;;;;;13.07;3.15;;;;;;;13.41;67.90;100303.69;4933392;29;20075;-89
2023/03/25 14:37:27;;;;;;;;;;;;;;;;;;;;;
2023/03/25 14:39:48;;;;;;;12.27;2.97;;;;;;;13.18;69.60;100330.44;4894154;29;20482;-90
2023/03/25 14:43:16;;;;;;;16.60;3.08;;;;;;;13.08;70.36;100321.66;4907977;29;20135;-90
2023/03/25 14:46:38;;;;;;;11.40;2.55;;;;;;;12.94;68.11;100335.31;4907865;29;20032;-88
2023/03/25 14:49:07;;;;;;;12.10;2.70;;;;;;;12.84;68.85;100342.44;4884677;29;20051;-89
2023/03/25 14:52:14;;;;;;;14.18;3.13;;;;;;;12.85;71.29;100338.81;4891756;29;20044;-89
2023/03/25 14:55:30;;;;;;;14.40;3.35;;;;;;;12.72;71.40;100327.69;4889189;29;20060;-88